Time;durP1;ratioP1;P1;durP2;ratioP2;P2;SDS_P1;SDS_P2;PMS_P1;PMS_P2;Temp;Humidity;BMP_temperature;BMP_pressure;BME280_temperature;BME280_humidity;BME280_pressure;Samples;Min_cycle;Max_cycle;Signal;HPM_P1;HPM_P2
2021/08/03 00:01:10;;;;;;;9.00;2.60;;;;;;;12.66;100.00;51579.59;5042997;28;20725;-72
2021/08/03 00:03:44;;;;;;;8.53;2.37;;;;;;;12.68;100.00;51580.97;5042908;28;20029;-72
2021/08/03 00:06:14;;;;;;;4.93;2.40;;;;;;;12.65;100.00;51909.78;5042918;28;20069;-72
2021/08/03 00:08:46;;;;;;;5.60;2.23;;;;;;;12.71;100.00;52577.59;5042767;28;20650;-72
2021/08/03 00:11:12;;;;;;;6.65;2.60;;;;;;;12.72;100.00;53572.28;5043163;28;20021;-72
2021/08/03 00:13:39;;;;;;;4.17;2.27;;;;;;;12.77;100.00;55234.06;5042498;28;20048;-72
2021/08/03 00:16:08;;;;;;;6.30;2.83;;;;;;;12.77;100.00;56560.25;5042991;28;20033;-72
2021/08/03 00:18:38;;;;;;;7.20;2.60;;;;;;;12.77;100.00;57554.75;5042646;28;20071;-72
2021/08/03 00:21:08;;;;;;;5.00;2.70;;;;;;;12.76;100.00;56890.91;5042441;28;20636;-72
2021/08/03 00:23:36;;;;;;;5.70;2.80;;;;;;;12.75;100.00;52249.69;5042609;28;20555;-72
2021/08/03 00:26:02;;;;;;;5.03;2.70;;;;;;;12.76;100.00;48609.50;5042740;28;20426;-72
2021/08/03 00:28:28;;;;;;;4.73;2.20;;;;;;;12.76;100.00;49602.59;5042758;28;20415;-72
2021/08/03 00:30:53;;;;;;;5.03;2.40;;;;;;;12.75;100.00;49601.69;5044372;28;20021;-72
2021/08/03 00:33:19;;;;;;;4.50;2.40;;;;;;;12.75;100.00;48278.25;5045503;28;20124;-72
2021/08/03 00:35:52;;;;;;;4.77;2.33;;;;;;;12.76;100.00;47948.34;5042661;28;20016;-72
2021/08/03 00:38:18;;;;;;;7.07;2.23;;;;;;;12.79;100.00;46958.28;5042598;28;20032;-72
2021/08/03 00:40:58;;;;;;;5.93;2.50;;;;;;;12.78;100.00;46296.56;5042533;28;20028;-72
2021/08/03 00:43:24;;;;;;;6.03;2.50;;;;;;;12.76;100.00;43651.09;5036295;28;20036;-72
2021/08/03 00:45:49;;;;;;;5.07;2.50;;;;;;;12.77;100.00;44643.06;5042620;28;20406;-72
2021/08/03 00:48:15;;;;;;;9.37;2.47;;;;;;;12.77;100.00;46626.34;5042116;28;20029;-72
2021/08/03 00:50:42;;;;;;;5.63;2.50;;;;;;;12.76;100.00;44311.84;5042228;28;20086;-72
2021/08/03 00:53:07;;;;;;;6.03;2.60;;;;;;;12.77;100.00;43651.47;5042519;28;20016;-72
2021/08/03 00:55:36;;;;;;;6.07;2.60;;;;;;;12.78;100.00;42991.63;5042618;28;20094;-72
2021/08/03 00:58:02;;;;;;;7.00;2.47;;;;;;;12.79;100.00;42662.50;5042247;28;20025;-72
2021/08/03 01:00:27;;;;;;;5.10;2.53;;;;;;;12.80;100.00;43984.59;5042916;28;20032;-71
2021/08/03 01:02:53;;;;;;;5.10;2.40;;;;;;;12.80;100.00;45967.59;5037711;28;20067;-72
2021/08/03 01:05:18;;;;;;;4.73;2.40;;;;;;;12.80;100.00;44314.63;5033337;28;20045;-72
2021/08/03 01:07:59;;;;;;;7.23;2.30;;;;;;;12.81;100.00;43655.00;5040870;28;20029;-72
2021/08/03 01:11:00;;;;;;;4.77;2.30;;;;;;;12.82;100.00;42995.09;5078569;22;20086;-67
2021/08/03 01:14:03;;;;;;;4.60;2.40;;;;;;;12.86;100.00;40026.09;5030583;22;20046;-71
2021/08/03 01:17:09;;;;;;;6.25;2.30;;;;;;;12.87;100.00;40357.25;5057326;28;20028;-70
2021/08/03 01:20:17;;;;;;;4.67;2.30;;;;;;;12.87;100.00;45642.31;4963261;28;20050;-70
2021/08/03 01:23:22;;;;;;;5.00;2.20;;;;;;;12.89;100.00;43330.84;4955399;28;20035;-70
2021/08/03 01:26:46;;;;;;;3.87;2.10;;;;;;;12.88;100.00;38378.03;4899775;29;20055;-70
2021/08/03 01:29:17;;;;;;;7.07;2.23;;;;;;;12.91;100.00;31788.09;4873901;29;20131;-70
2021/08/03 01:31:48;;;;;;;3.60;1.90;;;;;;;12.91;100.00;28826.34;4899950;29;20152;-70
2021/08/03 01:34:16;;;;;;;3.90;2.00;;;;;;;12.89;100.00;31128.78;4903334;29;20032;-70
2021/08/03 01:36:47;;;;;;;4.07;1.90;;;;;;;12.82;100.00;34088.41;4899918;29;20056;-70
2021/08/03 01:39:16;;;;;;;5.83;2.47;;;;;;;12.83;100.00;37714.88;4902576;29;20127;-70
2021/08/03 01:41:48;;;;;;;4.97;1.93;;;;;;;12.80;100.00;36723.28;4899476;29;20650;-70
2021/08/03 01:44:14;;;;;;;6.47;2.10;;;;;;;12.80;100.00;36063.97;4901447;29;20036;-70
2021/08/03 01:46:42;;;;;;;5.73;2.33;;;;;;;12.81;100.00;38373.16;4897524;29;20118;-71
2021/08/03 01:49:12;;;;;;;7.60;2.23;;;;;;;12.83;100.00;39034.00;4908816;29;20064;-71
2021/08/03 01:51:37;;;;;;;6.40;2.20;;;;;;;12.83;100.00;40024.28;4900452;29;20035;-71
2021/08/03 01:54:04;;;;;;;5.40;2.33;;;;;;;12.84;100.00;42005.81;4900655;29;20032;-71
2021/08/03 01:56:31;;;;;;;4.77;2.40;;;;;;;12.85;100.00;42336.44;4926015;28;20597;-71
2021/08/03 01:58:57;;;;;;;6.03;2.90;;;;;;;12.85;100.00;44319.00;4960735;28;20391;-71
2021/08/03 02:01:24;;;;;;;5.33;2.30;;;;;;;12.83;100.00;44978.34;5012851;28;20093;-71
2021/08/03 02:03:50;;;;;;;6.40;2.57;;;;;;;12.81;100.00;44315.81;5061623;28;20029;-71
2021/08/03 02:06:17;;;;;;;6.47;2.30;;;;;;;12.77;100.00;42330.72;5062102;28;20619;-71
2021/08/03 02:08:44;;;;;;;4.83;2.40;;;;;;;12.79;100.00;41671.84;5062467;28;20032;-69
2021/08/03 02:11:09;;;;;;;5.00;2.20;;;;;;;12.80;100.00;41672.22;5062340;28;20048;-69
2021/08/03 02:13:35;;;;;;;5.70;2.60;;;;;;;12.79;100.00;42331.84;5061818;28;20106;-69
2021/08/03 02:16:02;;;;;;;8.00;2.90;;;;;;;12.78;100.00;42001.28;5062135;28;20266;-69
2021/08/03 02:18:27;;;;;;;6.00;2.37;;;;;;;12.78;100.00;42661.34;5061752;28;20079;-69
2021/08/03 02:20:53;;;;;;;7.73;2.30;;;;;;;12.79;100.00;42992.38;5062244;28;20042;-69
2021/08/03 02:23:19;;;;;;;5.77;2.40;;;;;;;12.78;100.00;43321.91;5061924;28;20028;-69
2021/08/03 02:25:45;;;;;;;4.77;2.33;;;;;;;12.75;100.00;45632.94;5061963;28;20420;-69
2021/08/03 02:28:10;;;;;;;5.27;2.77;;;;;;;12.72;100.00;44969.13;5061319;28;20409;-69
2021/08/03 02:30:37;;;;;;;5.10;2.40;;;;;;;12.68;100.00;42983.91;5062068;28;20078;-69
2021/08/03 02:33:13;;;;;;;5.93;2.50;;;;;;;12.68;100.00;41663.22;5061646;28;20225;-69
2021/08/03 02:35:43;;;;;;;6.13;2.67;;;;;;;12.68;100.00;33750.03;5062058;28;20032;-69
2021/08/03 02:38:15;;;;;;;6.43;2.17;;;;;;;12.56;100.00;35060.25;5048926;28;20403;-69
2021/08/03 02:40:41;;;;;;;5.60;2.23;;;;;;;12.48;100.00;41648.63;5062171;28;20233;-69
2021/08/03 02:43:08;;;;;;;4.97;2.10;;;;;;;12.40;100.00;45604.84;5061117;28;20279;-69
2021/08/03 02:45:34;;;;;;;4.93;2.13;;;;;;;12.36;100.00;48906.44;5061393;28;20404;-69
2021/08/03 02:48:10;;;;;;;7.13;2.40;;;;;;;12.30;100.00;48901.63;5061144;28;20500;-69
2021/08/03 02:50:36;;;;;;;5.47;2.67;;;;;;;12.27;100.00;48568.44;5061284;28;20036;-69
2021/08/03 02:53:08;;;;;;;5.90;2.30;;;;;;;12.25;100.00;49889.22;5061381;28;20047;-69
2021/08/03 02:55:47;;;;;;;5.78;2.83;;;;;;;12.25;100.00;51543.03;5058873;28;20161;-69
2021/08/03 02:58:22;;;;;;;8.73;2.67;;;;;;;12.23;100.00;51209.94;5059766;28;20617;-71
2021/08/03 03:00:49;;;;;;;6.53;2.43;;;;;;;12.23;100.00;51210.38;5060633;28;20492;-71
2021/08/03 03:03:22;;;;;;;5.80;2.80;;;;;;;12.20;100.00;50215.44;5061709;28;20051;-71
2021/08/03 03:05:51;;;;;;;6.80;2.90;;;;;;;12.26;100.00;52205.72;5060634;28;20052;-71
2021/08/03 03:08:20;;;;;;;7.23;3.10;;;;;;;12.24;100.00;54189.41;5061420;28;20111;-71
2021/08/03 03:10:51;;;;;;;6.00;3.03;;;;;;;12.21;100.00;53193.44;5061310;28;20027;-71
2021/08/03 03:13:22;;;;;;;5.93;2.73;;;;;;;12.18;100.00;52860.13;5061191;28;20028;-71
2021/08/03 03:15:48;;;;;;;7.23;2.77;;;;;;;12.12;100.00;52854.06;5061110;28;20187;-71
2021/08/03 03:18:15;;;;;;;5.53;2.57;;;;;;;12.10;100.00;53514.00;5061175;28;20028;-71
2021/08/03 03:20:41;;;;;;;6.00;2.57;;;;;;;12.03;100.00;52515.72;5061589;28;20020;-71
2021/08/03 03:23:07;;;;;;;6.03;2.60;;;;;;;12.00;100.00;50528.66;5059230;28;20276;-71
2021/08/03 03:25:33;;;;;;;8.50;2.57;;;;;;;11.92;100.00;50521.03;5061185;28;20036;-70
2021/08/03 03:28:02;;;;;;;6.10;2.40;;;;;;;11.76;100.00;47864.28;5060999;28;20033;-70
2021/08/03 03:30:28;;;;;;;5.47;2.30;;;;;;;11.65;100.00;47525.19;5061048;28;20072;-70
2021/08/03 03:32:55;;;;;;;7.23;2.73;;;;;;;11.58;100.00;49500.41;5060348;28;20025;-70
2021/08/03 03:35:22;;;;;;;8.27;2.67;;;;;;;11.57;100.00;53795.94;5060558;28;20351;-70
2021/08/03 03:37:51;;;;;;;5.47;2.27;;;;;;;11.52;100.00;55775.31;5058297;28;20420;-70
2021/08/03 03:40:21;;;;;;;6.30;3.03;;;;;;;11.50;100.00;58752.34;5062334;28;20028;-68
2021/08/03 03:42:48;;;;;;;7.30;2.77;;;;;;;11.49;100.00;60739.25;5060130;28;20899;-68
2021/08/03 03:45:16;;;;;;;6.50;3.17;;;;;;;11.51;100.00;61735.59;5060434;28;20029;-68
2021/08/03 03:47:49;;;;;;;7.10;2.70;;;;;;;11.52;100.00;63062.75;5060059;28;20033;-68
2021/08/03 03:50:22;;;;;;;7.17;3.07;;;;;;;11.45;100.00;63055.53;5060554;28;20028;-68
2021/08/03 03:52:53;;;;;;;6.33;2.77;;;;;;;11.48;100.00;63720.91;5059891;28;20058;-68
2021/08/03 03:55:21;;;;;;;7.30;2.70;;;;;;;11.46;100.00;63719.25;5060126;28;20040;-68
2021/08/03 03:57:48;;;;;;;6.37;2.80;;;;;;;11.45;100.00;63718.13;5059834;28;20047;-68
2021/08/03 04:00:14;;;;;;;12.00;3.27;;;;;;;11.39;100.00;63048.34;5059500;28;20028;-68
2021/08/03 04:02:42;;;;;;;8.10;2.97;;;;;;;11.33;100.00;62378.81;5059758;28;20040;-68
2021/08/03 04:05:14;;;;;;;5.90;3.10;;;;;;;11.27;100.00;62041.44;5059973;28;20159;-68
2021/08/03 04:07:40;;;;;;;7.97;3.38;;;;;;;11.35;100.00;62712.44;5060262;28;20504;-68
2021/08/03 04:10:08;;;;;;;6.33;2.67;;;;;;;11.38;100.00;63379.28;5059258;28;20047;-68
2021/08/03 04:12:34;;;;;;;9.07;3.20;;;;;;;11.37;100.00;64040.75;5059486;28;20120;-68
2021/08/03 04:14:59;;;;;;;6.93;3.10;;;;;;;11.35;100.00;64370.09;5059173;28;20020;-68
2021/08/03 04:17:25;;;;;;;6.00;3.07;;;;;;;11.37;100.00;65035.66;5058622;28;20028;-68
2021/08/03 04:19:50;;;;;;;9.63;2.97;;;;;;;11.40;100.00;66034.38;5059819;28;20408;-68
2021/08/03 04:22:19;;;;;;;7.27;3.40;;;;;;;11.44;100.00;66703.28;5059794;28;20369;-68
2021/08/03 04:24:45;;;;;;;7.67;3.40;;;;;;;11.42;100.00;67032.25;5058217;28;20229;-68
2021/08/03 04:27:10;;;;;;;7.70;3.33;;;;;;;11.38;100.00;65700.84;5067450;28;20265;-69
2021/08/03 04:29:36;;;;;;;9.70;3.37;;;;;;;11.33;100.00;64699.47;5059151;28;20025;-68
2021/08/03 04:32:02;;;;;;;7.60;2.93;;;;;;;11.32;100.00;63703.59;5059559;28;20028;-68
2021/08/03 04:34:27;;;;;;;9.43;3.00;;;;;;;11.32;100.00;63041.13;5059240;28;20020;-68
2021/08/03 04:36:56;;;;;;;7.30;3.73;;;;;;;11.45;100.00;63718.13;5058622;28;20403;-68
2021/08/03 04:39:21;;;;;;;8.77;3.67;;;;;;;11.52;100.00;63725.97;5067495;28;20034;-68
2021/08/03 04:41:47;;;;;;;7.67;3.20;;;;;;;11.58;100.00;63400.44;5059104;28;20119;-68
2021/08/03 04:44:12;;;;;;;10.53;3.40;;;;;;;11.72;100.00;64080.09;5058243;28;20029;-68
2021/08/03 04:46:38;;;;;;;8.23;3.67;;;;;;;12.24;100.00;65133.88;5059441;28;20461;-68
2021/08/03 04:49:04;;;;;;;14.90;5.77;;;;;;;12.84;100.00;51264.91;5061424;28;20056;-67
2021/08/03 04:51:29;;;;;;;9.83;3.80;;;;;;;13.29;100.00;-8793.94;5059522;28;20028;-67
2021/08/03 04:53:55;;;;;;;6.00;3.53;;;;;;;14.07;100.00;-19532.59;5059100;28;20111;-67
2021/08/03 04:56:20;;;;;;;7.37;3.10;;;;;;;14.89;100.00;-19553.81;5059272;28;20024;-67
2021/08/03 04:58:46;;;;;;;5.97;2.67;;;;;;;15.55;100.00;-19570.69;5059421;28;20488;-66
2021/08/03 05:01:11;;;;;;;9.73;2.57;;;;;;;16.23;100.00;-19588.22;5059209;28;20029;-66
2021/08/03 05:03:37;;;;;;;3.93;2.13;;;;;;;16.60;100.00;-19597.63;5059103;28;20404;-66
2021/08/03 05:06:02;;;;;;;4.90;2.30;;;;;;;17.12;100.00;-19610.94;5059445;28;20082;-66
2021/08/03 05:08:28;;;;;;;5.73;1.90;;;;;;;17.31;100.00;-19615.91;5059347;28;20043;-66
2021/08/03 05:10:53;;;;;;;4.43;1.97;;;;;;;17.45;100.00;-19619.56;5059411;28;20632;-66
2021/08/03 05:13:19;;;;;;;4.90;2.10;;;;;;;17.66;100.00;-19624.78;5058875;28;20166;-66
2021/08/03 05:15:44;;;;;;;3.73;1.90;;;;;;;17.73;100.00;-19626.59;5058998;28;20054;-66
2021/08/03 05:18:09;;;;;;;5.83;1.90;;;;;;;18.30;100.00;-19641.22;5058879;28;20523;-66
2021/08/03 05:20:35;;;;;;;5.70;1.97;;;;;;;18.88;100.00;-19656.06;5059051;28;20021;-66
2021/08/03 05:23:00;;;;;;;4.03;1.70;;;;;;;19.26;100.00;-19665.97;5058664;28;20020;-66
2021/08/03 05:25:27;;;;;;;3.07;1.50;;;;;;;18.89;100.00;-19656.47;5059239;28;20170;-66
2021/08/03 05:27:52;;;;;;;4.87;1.97;;;;;;;19.46;100.00;-19670.91;5058951;28;20033;-66
2021/08/03 05:30:18;;;;;;;4.37;1.70;;;;;;;19.87;100.00;-19681.59;5062560;28;20035;-66
2021/08/03 05:32:43;;;;;;;4.70;1.85;;;;;;;19.83;100.00;-19680.41;5062734;28;20033;-66
2021/08/03 05:35:09;;;;;;;4.50;1.98;;;;;;;20.38;100.00;-19694.59;5062956;28;20032;-66
2021/08/03 05:37:35;;;;;;;7.60;1.88;;;;;;;19.03;100.00;-19659.97;5062848;28;20322;-66
2021/08/03 05:40:05;;;;;;;5.25;2.00;;;;;;;18.44;100.00;-19644.84;5062794;28;20024;-66
2021/08/03 05:42:30;;;;;;;4.28;1.70;;;;;;;18.73;100.00;-19652.41;5062369;28;20036;-67
2021/08/03 05:44:56;;;;;;;5.35;1.88;;;;;;;18.61;100.00;-19649.28;5062458;28;20028;-66
2021/08/03 05:47:21;;;;;;;5.82;2.00;;;;;;;19.48;100.00;-19671.44;5062616;28;20085;-66
2021/08/03 05:49:47;;;;;;;7.55;2.25;;;;;;;20.25;100.00;-19691.22;5062201;28;20059;-66
2021/08/03 05:52:12;;;;;;;4.00;1.52;;;;;;;19.84;100.00;-19680.81;5063132;28;20025;-67
2021/08/03 05:54:38;;;;;;;6.15;1.80;;;;;;;18.76;100.00;-19653.06;5062125;28;20096;-67
2021/08/03 05:57:04;;;;;;;4.78;1.50;;;;;;;19.77;100.00;-19678.84;5062068;28;20105;-66
2021/08/03 05:59:29;;;;;;;7.20;1.80;;;;;;;20.01;100.00;-19684.97;5062397;28;20113;-66
2021/08/03 06:01:55;;;;;;;4.32;1.50;;;;;;;20.42;100.00;-19695.63;5062053;28;20531;-66
2021/08/03 06:04:20;;;;;;;4.90;1.58;;;;;;;20.81;100.00;-19705.50;5062202;28;20077;-66
2021/08/03 06:06:48;;;;;;;3.38;1.30;;;;;;;20.76;100.00;-19704.19;5062345;28;20028;-66
2021/08/03 06:09:14;;;;;;;3.70;1.52;;;;;;;19.43;100.00;-19670.25;5061649;28;20396;-67
2021/08/03 06:11:49;;;;;;;7.00;2.10;;;;;;;19.48;100.00;-19671.44;5062309;28;20017;-67
2021/08/03 06:14:40;;;;;;;6.03;1.50;;;;;;;19.55;100.00;-19673.25;5061895;28;20036;-67
2021/08/03 06:17:09;;;;;;;4.60;1.42;;;;;;;19.52;100.00;-19672.47;5055153;28;20064;-67
2021/08/03 06:19:44;;;;;;;4.60;1.50;;;;;;;20.66;100.00;-19701.72;5061994;28;20182;-67
2021/08/03 06:22:12;;;;;;;4.13;1.30;;;;;;;20.69;100.00;-19702.38;5062144;28;20068;-67
2021/08/03 06:24:39;;;;;;;5.20;1.60;;;;;;;21.77;100.00;-19729.91;5061797;28;20024;-67
2021/08/03 06:27:11;;;;;;;3.67;1.50;;;;;;;21.85;100.00;-19732.00;5062100;28;20377;-67
2021/08/03 06:29:38;;;;;;;2.78;1.40;;;;;;;20.72;100.00;-19703.16;5061683;28;20028;-67
2021/08/03 06:32:05;;;;;;;3.80;1.58;;;;;;;21.24;100.00;-19716.41;5062267;28;20381;-67
2021/08/03 06:34:33;;;;;;;4.55;1.48;;;;;;;19.56;100.00;-19673.66;5061860;28;20640;-67
2021/08/03 06:36:59;;;;;;;3.95;1.73;;;;;;;19.64;100.00;-19675.59;5062008;28;20027;-67
2021/08/03 06:39:24;;;;;;;3.65;1.50;;;;;;;19.63;100.00;-19675.34;5061484;28;20032;-67
2021/08/03 06:41:56;;;;;;;3.58;1.92;;;;;;;20.60;100.00;-19700.19;5060591;28;20101;-67
2021/08/03 06:44:27;;;;;;;3.97;1.50;;;;;;;20.93;100.00;-19708.63;5061282;28;20024;-67
2021/08/03 06:46:56;;;;;;;4.22;1.40;;;;;;;20.99;100.00;-19710.19;5061632;28;20025;-67
2021/08/03 06:49:22;;;;;;;4.65;1.42;;;;;;;20.03;100.00;-19685.47;5061350;28;20385;-67
2021/08/03 06:51:51;;;;;;;4.18;1.60;;;;;;;19.73;100.00;-19677.94;5061610;28;20024;-67
2021/08/03 06:54:17;;;;;;;4.65;1.60;;;;;;;20.73;100.00;-19703.44;5061248;28;20186;-67
2021/08/03 06:56:54;;;;;;;4.38;1.50;;;;;;;20.34;100.00;-19693.53;5061438;28;20496;-67
2021/08/03 06:59:26;;;;;;;4.85;1.35;;;;;;;21.63;100.00;-19726.41;5061230;28;20035;-67
2021/08/03 07:02:11;;;;;;;;;;;;;;;22.55;98.27;-19749.88;5061754;28;20095;-67
2021/08/03 07:05:06;;;;;;;5.50;1.33;;;;;;;22.14;99.88;-19739.50;5060994;28;19934;-67
2021/08/03 07:07:33;;;;;;;2.90;1.15;;;;;;;21.60;100.00;-19725.75;5054943;28;20042;-67
2021/08/03 07:10:01;;;;;;;6.13;1.35;;;;;;;21.49;100.00;-19722.78;5060788;28;20024;-67
2021/08/03 07:12:28;;;;;;;4.55;1.17;;;;;;;21.62;99.55;-19726.28;5060904;28;20028;-67
2021/08/03 07:14:54;;;;;;;2.60;1.20;;;;;;;20.93;99.18;-19708.50;5054516;28;20037;-67
2021/08/03 07:17:21;;;;;;;2.38;1.10;;;;;;;20.57;100.00;-19699.25;5060708;28;20035;-67
2021/08/03 07:19:48;;;;;;;2.70;1.00;;;;;;;21.74;100.00;-19729.13;5059878;28;20034;-67
2021/08/03 07:22:16;;;;;;;3.15;1.05;;;;;;;23.98;90.22;-19786.41;5060459;28;20166;-67
2021/08/03 07:24:43;;;;;;;2.67;0.98;;;;;;;22.63;79.17;-19751.97;5060193;28;20048;-67
2021/08/03 07:27:09;;;;;;;4.32;1.10;;;;;;;23.82;91.35;-19782.25;5060553;28;20541;-67
2021/08/03 07:29:34;;;;;;;4.13;0.95;;;;;;;21.21;84.46;-19715.63;5059985;28;20032;-67
2021/08/03 07:32:00;;;;;;;2.00;0.80;;;;;;;21.28;85.29;-19717.44;5060172;28;20380;-67
2021/08/03 07:34:25;;;;;;;3.08;0.70;;;;;;;22.50;76.27;-19748.72;5059803;28;20027;-67
2021/08/03 07:36:51;;;;;;;2.20;0.75;;;;;;;23.03;75.02;-19762.06;5060315;28;20484;-67
2021/08/03 07:39:17;;;;;;;2.30;0.75;;;;;;;24.68;72.49;-19804.13;5060081;28;20033;-67
2021/08/03 07:41:42;;;;;;;1.38;0.70;;;;;;;24.16;68.83;-19790.78;5060240;28;20020;-67
2021/08/03 07:44:08;;;;;;;3.20;0.80;;;;;;;24.95;69.27;-19810.97;5059725;28;20025;-67
2021/08/03 07:46:35;;;;;;;2.50;0.88;;;;;;;26.06;60.49;-19839.09;5060046;28;20185;-67
2021/08/03 07:49:06;;;;;;;3.55;1.00;;;;;;;24.92;62.04;-19810.19;5059805;28;20021;-67
2021/08/03 07:51:32;;;;;;;2.15;0.90;;;;;;;22.11;69.75;-19738.59;5059721;28;20391;-67
2021/08/03 07:53:58;;;;;;;1.20;0.68;;;;;;;23.96;66.47;-19785.75;5059743;28;20039;-67
2021/08/03 07:56:23;;;;;;;2.65;0.70;;;;;;;23.94;70.51;-19785.38;5060064;28;20032;-67
2021/08/03 07:58:49;;;;;;;3.30;0.70;;;;;;;23.87;71.98;-19783.44;5059507;28;20258;-68
2021/08/03 08:01:17;;;;;;;2.95;0.73;;;;;;;24.20;66.13;-19791.97;5059725;28;20106;-67
2021/08/03 08:03:44;;;;;;;3.47;0.70;;;;;;;24.04;69.23;-19787.69;5059584;28;20503;-68
2021/08/03 08:06:09;;;;;;;1.88;0.70;;;;;;;22.13;66.08;-19739.13;5059481;28;20051;-67
2021/08/03 08:08:35;;;;;;;1.35;0.52;;;;;;;22.71;65.92;-19754.03;5059428;28;20497;-67
2021/08/03 08:11:00;;;;;;;1.33;0.57;;;;;;;22.20;68.52;-19741.06;5059429;28;20081;-67
2021/08/03 08:13:26;;;;;;;0.98;0.50;;;;;;;22.43;64.03;-19746.78;5059220;28;20028;-67
2021/08/03 08:15:52;;;;;;;4.82;0.70;;;;;;;24.81;58.35;-19807.34;5059640;28;20024;-67
2021/08/03 08:18:17;;;;;;;4.50;0.70;;;;;;;25.41;60.71;-19822.72;5059130;28;20020;-68
2021/08/03 08:20:44;;;;;;;1.35;0.52;;;;;;;24.22;61.51;-19792.34;5059660;28;20032;-68
2021/08/03 08:23:14;;;;;;;1.25;0.50;;;;;;;24.96;60.63;-19811.22;5058845;28;20112;-68
2021/08/03 08:25:40;;;;;;;1.02;0.52;;;;;;;24.54;57.11;-19800.63;5059210;28;20021;-68
2021/08/03 08:28:06;;;;;;;3.33;0.70;;;;;;;25.96;58.95;-19836.53;5059359;28;20097;-68
2021/08/03 08:30:32;;;;;;;3.97;0.68;;;;;;;24.32;57.15;-19794.94;5059516;28;20426;-68
2021/08/03 08:32:58;;;;;;;1.52;0.52;;;;;;;23.14;64.42;-19764.91;5059199;28;20174;-68
2021/08/03 08:35:24;;;;;;;3.30;0.90;;;;;;;20.41;73.93;-19695.22;5059389;28;20103;-68
2021/08/03 08:37:52;;;;;;;1.55;0.60;;;;;;;19.50;85.43;-19671.94;5058986;28;20047;-68
2021/08/03 08:40:18;;;;;;;3.65;0.70;;;;;;;20.47;78.58;-19696.94;5059718;28;20072;-67
2021/08/03 08:42:47;;;;;;;1.73;0.70;;;;;;;22.66;72.41;-19752.59;5059086;28;20133;-67
2021/08/03 08:45:14;;;;;;;1.73;0.60;;;;;;;24.46;56.27;-19798.44;5059116;28;20017;-68
2021/08/03 08:47:45;;;;;;;1.30;0.60;;;;;;;25.36;54.67;-19821.41;5059164;28;20028;-68
2021/08/03 08:50:13;;;;;;;1.42;0.60;;;;;;;24.01;56.77;-19786.91;5059207;28;20302;-68
2021/08/03 08:52:40;;;;;;;1.75;0.50;;;;;;;23.16;59.08;-19765.44;5059107;28;20266;-68
2021/08/03 08:55:07;;;;;;;3.03;0.88;;;;;;;23.59;59.38;-19776.44;5059628;28;20275;-68
2021/08/03 08:57:33;;;;;;;2.08;0.50;;;;;;;25.39;55.75;-19822.06;5058822;28;20504;-68
2021/08/03 08:59:59;;;;;;;1.20;0.50;;;;;;;24.93;52.33;-19810.44;5059194;28;20039;-68
2021/08/03 09:02:40;;;;;;;1.27;0.60;;;;;;;24.18;53.77;-19791.31;5059310;28;20492;-68
2021/08/03 09:05:11;;;;;;;1.70;0.50;;;;;;;24.32;58.15;-19794.81;5062084;28;20028;-68
2021/08/03 09:07:51;;;;;;;1.50;0.60;;;;;;;25.43;50.50;-19823.09;5063249;28;20123;-68
2021/08/03 09:10:43;;;;;;;2.03;0.70;;;;;;;25.62;48.89;-19828.00;5063162;28;20024;-68
2021/08/03 09:13:17;;;;;;;1.13;0.50;;;;;;;26.38;51.00;-19847.09;5062908;28;20107;-68
2021/08/03 09:15:54;;;;;;;1.25;0.43;;;;;;;27.89;46.97;-19885.47;5050468;28;20038;-68
2021/08/03 09:18:34;;;;;;;1.40;0.50;;;;;;;27.95;45.49;-19887.00;5063040;28;20095;-68
2021/08/03 09:21:00;;;;;;;1.65;0.57;;;;;;;28.69;46.14;-19905.50;5063111;28;20030;-68
2021/08/03 09:24:05;;;;;;;6.43;0.47;;;;;;;29.35;39.89;-19922.22;5062515;28;20108;-68
2021/08/03 09:26:49;;;;;;;2.47;0.57;;;;;;;27.73;42.68;-19881.34;5060286;28;20067;-68
2021/08/03 09:29:16;;;;;;;4.82;0.50;;;;;;;25.40;46.56;-19822.31;5062567;28;20519;-69
2021/08/03 09:31:54;;;;;;;0.95;0.50;;;;;;;26.48;47.96;-19849.81;5062693;28;20035;-69
2021/08/03 09:34:20;;;;;;;2.22;0.40;;;;;;;27.30;46.50;-19870.53;5062661;28;20031;-68
2021/08/03 09:37:05;;;;;;;0.60;0.30;;;;;;;26.19;44.98;-19842.44;5062875;28;20028;-68
2021/08/03 09:39:41;;;;;;;2.05;0.50;;;;;;;27.40;45.16;-19873.13;5062407;28;20028;-69
2021/08/03 09:42:12;;;;;;;1.27;0.60;;;;;;;27.79;45.60;-19882.91;5062673;28;20075;-69
2021/08/03 09:44:51;;;;;;;1.30;0.50;;;;;;;27.24;45.85;-19869.00;5062282;28;20241;-69
2021/08/03 09:47:18;;;;;;;2.65;0.50;;;;;;;25.55;45.93;-19826.19;5062623;28;20496;-68
2021/08/03 09:49:48;;;;;;;2.33;0.60;;;;;;;24.43;49.17;-19797.66;5062037;28;20119;-68
2021/08/03 09:52:22;;;;;;;1.70;0.60;;;;;;;24.62;47.40;-19802.56;5063410;28;20035;-71
2021/08/03 09:54:48;;;;;;;1.63;0.50;;;;;;;22.33;51.99;-19744.19;5062043;28;20017;-69
2021/08/03 09:57:23;;;;;;;1.00;0.55;;;;;;;21.37;54.76;-19719.78;5061851;28;20094;-68
2021/08/03 09:59:49;;;;;;;0.98;0.50;;;;;;;22.42;54.21;-19746.53;5061819;28;20377;-68
2021/08/03 10:02:23;;;;;;;1.45;0.60;;;;;;;23.54;48.90;-19775.00;5062060;28;20032;-72
2021/08/03 10:04:51;;;;;;;4.38;0.88;;;;;;;23.87;51.77;-19783.44;5061949;28;20021;-68
2021/08/03 10:07:16;;;;;;;1.15;0.45;;;;;;;24.01;47.16;-19787.06;5062181;28;20032;-68
2021/08/03 10:09:42;;;;;;;1.17;0.47;;;;;;;24.45;47.86;-19798.16;5061772;28;20111;-68
2021/08/03 10:12:08;;;;;;;1.42;0.30;;;;;;;24.83;50.08;-19808.00;5062095;28;20039;-68
2021/08/03 10:14:34;;;;;;;2.17;0.55;;;;;;;26.48;48.46;-19849.69;5061851;28;20036;-68
2021/08/03 10:17:00;;;;;;;0.95;0.40;;;;;;;28.13;43.60;-19891.38;5062150;28;20063;-69
2021/08/03 10:19:33;;;;;;;2.88;0.60;;;;;;;27.30;42.59;-19870.53;5061835;28;20032;-69
2021/08/03 10:22:19;;;;;;;0.85;0.40;;;;;;;28.48;41.54;-19900.38;5062129;28;20027;-69
2021/08/03 10:25:06;;;;;;;0.82;0.32;;;;;;;28.28;39.62;-19895.38;5060577;28;20067;-69
2021/08/03 10:27:50;;;;;;;3.58;0.63;;;;;;;28.35;41.06;-19896.91;5061745;28;20047;-69
2021/08/03 10:30:49;;;;;;;1.45;0.50;;;;;;;28.10;41.37;-19890.72;5062099;28;20343;-69
2021/08/03 10:33:43;;;;;;;1.25;0.45;;;;;;;25.49;40.70;-19824.53;5027766;28;20052;-69
2021/08/03 10:36:58;;;;;;;1.08;0.50;;;;;;;25.48;41.67;-19824.38;5062733;28;20024;-71
2021/08/03 10:39:25;;;;;;;2.78;0.52;;;;;;;27.59;42.54;-19877.75;5043202;28;20488;-72
2021/08/03 10:42:20;;;;;;;3.95;0.50;;;;;;;25.31;43.26;-19820.13;5061457;28;20035;-72
2021/08/03 10:44:57;;;;;;;2.05;0.40;;;;;;;26.16;44.08;-19841.69;5040021;28;20348;-72
2021/08/03 10:47:52;;;;;;;1.98;0.50;;;;;;;25.23;41.56;-19817.94;5061152;28;20170;-72
2021/08/03 10:50:29;;;;;;;1.35;0.50;;;;;;;26.58;45.04;-19852.38;5048011;28;20320;-72
2021/08/03 10:52:56;;;;;;;1.63;0.50;;;;;;;27.39;44.86;-19872.84;5060924;28;20145;-72
2021/08/03 10:55:44;;;;;;;1.05;0.40;;;;;;;25.37;44.61;-19821.56;5061265;28;20165;-72
2021/08/03 10:58:19;;;;;;;2.35;0.50;;;;;;;25.30;45.76;-19819.88;5060749;28;20036;-72
2021/08/03 11:01:03;;;;;;;3.08;0.55;;;;;;;25.28;45.97;-19819.22;5060935;28;20025;-72
2021/08/03 11:03:55;;;;;;;1.58;0.60;;;;;;;24.61;45.88;-19802.19;5061072;28;20214;-72
2021/08/03 11:06:40;;;;;;;2.28;0.50;;;;;;;25.36;43.76;-19821.28;5058143;28;20059;-72
2021/08/03 11:09:31;;;;;;;1.20;0.45;;;;;;;25.42;43.39;-19822.97;5060460;28;20544;-72
2021/08/03 11:12:35;;;;;;;2.83;0.80;;;;;;;25.76;41.22;-19831.34;5060975;28;20113;-72
2021/08/03 11:15:37;;;;;;;1.15;0.50;;;;;;;25.80;42.84;-19832.53;5055552;28;20094;-72
2021/08/03 11:18:10;;;;;;;2.67;0.65;;;;;;;27.43;39.29;-19873.88;5060309;28;20057;-72
2021/08/03 11:20:59;;;;;;;1.85;0.50;;;;;;;25.90;44.01;-19834.97;5060671;28;20145;-72
2021/08/03 11:23:58;;;;;;;1.88;0.60;;;;;;;25.41;41.40;-19822.59;5060117;28;20405;-72
2021/08/03 11:26:29;;;;;;;1.58;0.60;;;;;;;23.71;45.32;-19779.41;5060108;28;20278;-72
2021/08/03 11:28:57;;;;;;;;;;;;;;;22.86;46.82;-19757.78;5060906;28;20171;-72
2021/08/03 11:31:36;;;;;;;1.60;0.40;;;;;;;23.12;50.43;-19764.41;5060627;28;19909;-72
2021/08/03 11:34:02;;;;;;;1.45;0.50;;;;;;;22.01;48.81;-19736.13;5060185;28;20101;-72
2021/08/03 11:36:27;;;;;;;2.05;0.90;;;;;;;21.37;50.84;-19719.66;5060577;28;20477;-72
2021/08/03 11:38:53;;;;;;;1.92;0.60;;;;;;;21.83;51.24;-19731.47;5060316;28;20055;-72
2021/08/03 11:41:18;;;;;;;1.67;0.70;;;;;;;22.45;50.10;-19747.28;5060003;28;20025;-72